This is the latest recevied weather packets stored in our database for station/object E20ZNR-1. If no packets are shown the sender has not sent any weather packets the latest 1 day(s).
| Time | Temp. | Humidity | Pressure | Rain* | Wind** | Luminosity | Snow |
|---|---|---|---|---|---|---|---|
| 1778097470 | 27.78° C | 99% | 1003 hPa | - | - | 0 W/m² | - |
| 1778096545 | 27.78° C | 99% | 1003 hPa | - | - | 0 W/m² | - |
| 1778094695 | 28.33° C | 99% | 1003 hPa | - | - | 0 W/m² | - |
| 1778093770 | 28.89° C | 99% | 1004 hPa | - | - | 0 W/m² | - |
| 1778086371 | 29.44° C | 96% | 1004 hPa | - | - | 0 W/m² | - |
| 1778084521 | 30° C | 94% | 1005 hPa | - | - | 0 W/m² | - |
| 1778082671 | 30° C | 92% | 1005 hPa | - | - | 0 W/m² | - |
| 1778081746 | 30° C | 92% | 1005 hPa | - | - | 0 W/m² | - |
| 1778078047 | 30.56° C | 87% | 1004 hPa | - | - | 0 W/m² | - |
| 1778075271 | 30.56° C | 89% | 1004 hPa | - | - | 0 W/m² | - |
| 1778074346 | 31.11° C | 88% | 1004 hPa | - | - | 0 W/m² | - |
| 1778065096 | 33.33° C | 68% | 1002 hPa | - | - | 0 W/m² | - |
| 1778064171 | 33.89° C | 64% | 1002 hPa | - | - | 0 W/m² | - |
| 1778061398 | 34.44° C | 57% | 1002 hPa | - | - | 0 W/m² | - |
| 1778060471 | 34.44° C | 59% | 1002 hPa | - | - | 0 W/m² | - |
| 1778059546 | 35° C | 61% | 1002 hPa | - | - | 0 W/m² | - |
| 1778056771 | 35.56° C | 59% | 1002 hPa | - | - | 0 W/m² | - |
| 1778055845 | 34.44° C | 60% | 1002 hPa | - | - | 0 W/m² | - |
| 1778054920 | 33.89° C | 61% | 1003 hPa | - | - | 0 W/m² | - |
| 1778052144 | 36.11° C | 52% | 1003 hPa | - | - | 0 W/m² | - |
| 1778051219 | 35.56° C | 51% | 1003 hPa | - | - | 0 W/m² | - |
| 1778047517 | 36.67° C | 55% | 1004 hPa | - | - | 0 W/m² | - |
| 1778046592 | 39.44° C | 48% | 1004 hPa | - | - | 0 W/m² | - |
| 1778045666 | 41.11° C | 47% | 1005 hPa | - | - | 0 W/m² | - |
| 1778044741 | 39.44° C | 50% | 1005 hPa | - | - | 0 W/m² | - |
* Rain since midnight (hover to see other rain measurements)
** Current wind speed in m/s (hover to see current wind gust speed)